Terminal Aerodrome Forecast
Issued by NWS Grand Rapids, MI

Home | Current Version | Previous Version | Text Only | Print | Product List | Glossary On
Versions: 1 2 3 4 5 6 7 8 9 10 11 12 13 14 15 16 17 18
000
FTUS43 KGRR 221730
TAFGRR
TAF
KGRR 221730Z 2218/2318 27015G25KT P6SM VCSH BKN025
     FM221900 33014G24KT P6SM BKN025
     FM222200 33015G25KT P6SM SCT035
     FM230100 29008KT P6SM SKC=

USA.gov is the U.S. government's official web portal to all federal, state and local government web resources and services.